Terminal Aerodrome Forecast
Issued by NWS

Home | Current Version | Previous Version | Text Only | Print | Product List | Glossary On
Versions: 1 2 3 4 5 6 7 8 9 10 11 12 13 14 15 16
000
FTUS46 KLOX 200834 AAA
TAFWJF
TAF AMD
KWJF 200834Z 2009/2106 25022G32KT P6SM SKC
     FM201200 25015KT P6SM SKC
     FM201700 24018G25KT P6SM SKC
     FM202100 24025G35KT 6SM BLDU SKC
     FM210300 24017G25KT P6SM SKC=

USA.gov is the U.S. government's official web portal to all federal, state and local government web resources and services.